Sheridan, Maine
Current Conditions -  °F | °C
As of 9:35 AM on Saturday 25 Oct 2014 (Local Time) from KPQI Reporting Station
Overcast Overcast  
Wind Chill: 37°   Ceiling: 3400
Heat Index: 43°   Visibility: 10mi
Dew Point: 36°   Wind: 10mph
Humidity: 76%   Direction: 10°N
Pressure: 29.63"   Gusts: NA
Location:  46.66°N, 68.41°W
Report Text: KPQI 251335Z AUTO 01009KT 10SM OVC034 06/02 A2963 RMK AO1
Loading
Personal Weather Stations






























Interactive Weather Map
Tropical Storm Tracking
New forecast layout! Learn more

10-Day Weather Forecast

Advertisements
Track Severe Weather on mobile